createdAt,value
2023-09-16T00:01:23.824Z,3.25
2023-09-16T00:03:50.899Z,5.30
2023-09-16T00:06:17.922Z,8.40
2023-09-16T00:08:44.992Z,3.38
2023-09-16T00:11:12.079Z,3.03
2023-09-16T00:13:39.117Z,5.65
2023-09-16T00:16:06.126Z,3.30
2023-09-16T00:18:33.202Z,2.67
2023-09-16T00:21:00.207Z,2.92
2023-09-16T00:23:27.211Z,4.38
2023-09-16T00:25:54.317Z,3.38
2023-09-16T00:28:21.323Z,2.72
2023-09-16T00:30:48.812Z,3.50
2023-09-16T00:33:16.084Z,3.10
2023-09-16T00:35:43.103Z,3.60
2023-09-16T00:38:10.240Z,3.63
2023-09-16T00:40:38.057Z,5.15
2023-09-16T00:43:05.145Z,4.13
2023-09-16T00:45:32.174Z,3.13
2023-09-16T00:47:59.251Z,2.88
2023-09-16T00:50:26.355Z,3.05
2023-09-16T00:52:56.966Z,3.20
2023-09-16T00:55:24.020Z,2.75
2023-09-16T00:57:52.014Z,3.00
2023-09-16T01:00:19.266Z,2.67
2023-09-16T01:02:46.535Z,4.28
2023-09-16T01:05:13.871Z,2.28
2023-09-16T01:07:40.935Z,4.30
2023-09-16T01:10:09.095Z,2.75
2023-09-16T01:12:36.144Z,6.90
2023-09-16T01:15:03.222Z,3.13
2023-09-16T01:17:34.578Z,4.00
2023-09-16T01:20:07.608Z,6.20
2023-09-16T01:22:35.439Z,3.28
2023-09-16T01:25:06.241Z,3.20
2023-09-16T01:27:33.447Z,3.47
2023-09-16T01:30:00.867Z,4.10
2023-09-16T01:32:35.099Z,2.72
2023-09-16T01:35:03.896Z,6.60
2023-09-16T01:37:30.910Z,3.45
2023-09-16T01:39:58.468Z,2.85
2023-09-16T01:42:28.429Z,5.20
2023-09-16T01:44:55.477Z,4.95
2023-09-16T01:47:22.773Z,3.25
2023-09-16T01:49:49.857Z,4.00
2023-09-16T01:52:16.988Z,4.60
2023-09-16T01:54:44.178Z,3.67
2023-09-16T01:57:11.282Z,2.90
2023-09-16T01:59:38.343Z,5.43
2023-09-16T02:02:05.360Z,3.45
2023-09-16T02:04:32.397Z,2.78
2023-09-16T02:06:59.390Z,5.00
2023-09-16T02:09:26.498Z,3.30
2023-09-16T02:11:53.511Z,4.50
2023-09-16T02:14:20.549Z,4.38
2023-09-16T02:16:47.804Z,6.75
2023-09-16T02:19:14.877Z,3.08
2023-09-16T02:21:41.927Z,5.15
2023-09-16T02:24:09.026Z,3.45
2023-09-16T02:26:36.155Z,3.72
2023-09-16T02:29:03.208Z,3.03
2023-09-16T02:31:30.209Z,3.25
2023-09-16T02:34:00.333Z,4.20
2023-09-16T02:36:27.916Z,3.67
2023-09-16T02:38:55.016Z,4.63
2023-09-16T02:41:21.979Z,4.60
2023-09-16T02:43:49.068Z,4.40
2023-09-16T02:46:16.207Z,2.90
2023-09-16T02:48:43.409Z,5.30
2023-09-16T02:51:10.403Z,3.10
2023-09-16T02:53:38.468Z,3.50
2023-09-16T02:56:05.678Z,5.45
2023-09-16T02:58:32.707Z,3.72
2023-09-16T03:00:59.769Z,3.33
2023-09-16T03:03:27.130Z,3.55
2023-09-16T03:05:54.201Z,3.42
2023-09-16T03:08:21.335Z,3.38
2023-09-16T03:10:48.506Z,3.40
2023-09-16T03:13:15.472Z,4.93
2023-09-16T03:15:46.998Z,3.17
2023-09-16T03:18:14.232Z,3.78
2023-09-16T03:20:41.307Z,4.97
2023-09-16T03:23:08.367Z,3.15
2023-09-16T03:25:35.372Z,2.95
2023-09-16T03:28:02.467Z,4.70
2023-09-16T03:30:29.561Z,5.70
2023-09-16T03:32:56.552Z,4.13
2023-09-16T03:35:23.652Z,2.60
2023-09-16T03:37:50.692Z,2.88
2023-09-16T03:40:17.824Z,3.92
2023-09-16T03:42:44.941Z,3.55
2023-09-16T03:45:23.134Z,3.13
2023-09-16T03:47:54.466Z,3.55
2023-09-16T03:50:21.703Z,4.85
2023-09-16T03:52:48.694Z,5.50
2023-09-16T03:55:16.110Z,3.53
2023-09-16T03:57:43.299Z,5.00
2023-09-16T04:00:11.228Z,2.97
2023-09-16T04:02:38.537Z,3.22
2023-09-16T04:05:06.778Z,4.45
2023-09-16T04:07:33.905Z,4.82
2023-09-16T04:10:01.067Z,5.57
2023-09-16T04:12:28.173Z,3.40
2023-09-16T04:14:55.120Z,2.92
2023-09-16T04:17:22.165Z,2.67
2023-09-16T04:19:49.160Z,3.42
2023-09-16T04:22:16.197Z,3.83
2023-09-16T04:24:43.409Z,3.30
2023-09-16T04:27:10.420Z,4.90
2023-09-16T04:29:37.419Z,4.63
2023-09-16T04:32:05.109Z,2.95
2023-09-16T04:34:33.567Z,5.53
2023-09-16T04:37:00.971Z,4.78
2023-09-16T04:39:28.206Z,3.67
2023-09-16T04:41:55.187Z,4.60
2023-09-16T04:44:22.595Z,3.85
2023-09-16T04:46:50.111Z,2.63
2023-09-16T04:49:17.135Z,3.45
2023-09-16T04:51:44.191Z,7.38
2023-09-16T04:54:11.155Z,3.13
2023-09-16T04:56:38.201Z,4.03
2023-09-16T04:59:05.571Z,4.70
2023-09-16T05:01:33.121Z,4.18
2023-09-16T05:04:00.423Z,3.88
2023-09-16T05:06:27.695Z,5.05
2023-09-16T05:08:54.700Z,3.85
2023-09-16T05:11:21.657Z,3.03
2023-09-16T05:13:48.691Z,5.22
2023-09-16T05:16:15.735Z,4.07
2023-09-16T05:18:42.835Z,4.97
2023-09-16T05:21:09.830Z,3.55
2023-09-16T05:23:36.835Z,5.55
2023-09-16T05:26:05.752Z,7.30
2023-09-16T05:28:32.854Z,2.92
2023-09-16T05:30:59.834Z,3.78
2023-09-16T05:33:26.861Z,3.80
2023-09-16T05:35:53.801Z,5.90
2023-09-16T05:38:20.885Z,4.43
2023-09-16T05:40:47.823Z,3.42
2023-09-16T05:43:14.933Z,2.83
2023-09-16T05:45:42.096Z,3.92
2023-09-16T05:48:09.163Z,3.63
2023-09-16T05:50:36.117Z,3.75
2023-09-16T05:53:04.877Z,5.47
2023-09-16T05:55:31.833Z,3.00
2023-09-16T05:57:58.894Z,2.85
2023-09-16T06:00:25.922Z,4.35
2023-09-16T06:02:53.478Z,3.72
2023-09-16T06:05:20.644Z,3.05
2023-09-16T06:07:47.674Z,2.70
2023-09-16T06:10:14.733Z,3.00
2023-09-16T06:12:41.734Z,5.15
2023-09-16T06:15:09.598Z,4.85
2023-09-16T06:17:36.614Z,4.70
2023-09-16T06:20:04.222Z,3.10
2023-09-16T06:22:31.141Z,4.10
2023-09-16T06:24:58.169Z,7.63
2023-09-16T06:27:25.129Z,6.22
2023-09-16T06:29:52.207Z,6.38
2023-09-16T06:32:19.220Z,5.75
2023-09-16T06:34:46.409Z,4.75
2023-09-16T06:37:13.428Z,5.82
2023-09-16T06:39:40.509Z,7.03
2023-09-16T06:42:07.525Z,5.18
2023-09-16T06:44:34.515Z,5.00
2023-09-16T06:47:01.576Z,5.50
2023-09-16T06:49:28.584Z,6.35
2023-09-16T06:51:55.606Z,5.72
2023-09-16T06:54:22.656Z,4.72
2023-09-16T06:56:49.638Z,4.78
2023-09-16T07:02:01.115Z,4.25
2023-09-16T07:04:28.263Z,4.95
2023-09-16T07:06:55.977Z,5.28
2023-09-16T07:09:23.156Z,4.38
2023-09-16T07:11:50.169Z,6.28
2023-09-16T07:14:17.203Z,4.78
2023-09-16T07:16:44.221Z,4.65
2023-09-16T07:19:11.373Z,4.82
2023-09-16T07:21:38.630Z,4.32
2023-09-16T07:24:06.892Z,4.85
2023-09-16T07:26:34.956Z,4.32
2023-09-16T07:29:02.026Z,4.68
2023-09-16T07:31:29.991Z,4.50
2023-09-16T07:33:57.087Z,5.82
2023-09-16T07:36:24.139Z,4.53
2023-09-16T07:38:51.282Z,4.47
2023-09-16T07:41:19.729Z,5.28
2023-09-16T07:43:46.717Z,4.32
2023-09-16T07:46:13.820Z,5.60
2023-09-16T07:48:40.950Z,6.00
2023-09-16T07:51:07.968Z,5.63
2023-09-16T07:53:34.971Z,5.63
2023-09-16T07:56:02.114Z,8.43
2023-09-16T07:58:29.143Z,5.05
2023-09-16T08:00:56.229Z,4.60
2023-09-16T08:03:23.564Z,5.13
2023-09-16T08:05:50.725Z,5.60
2023-09-16T08:08:18.213Z,5.70
2023-09-16T08:10:48.472Z,6.78
2023-09-16T08:13:15.516Z,4.78
2023-09-16T08:15:42.568Z,5.63
2023-09-16T08:18:09.719Z,6.13
2023-09-16T08:20:36.764Z,6.55
2023-09-16T08:23:03.880Z,6.05
2023-09-16T08:25:30.956Z,7.13
2023-09-16T08:27:58.136Z,6.82
2023-09-16T08:30:25.172Z,8.45
2023-09-16T08:32:52.321Z,6.63
2023-09-16T08:35:19.308Z,9.38
2023-09-16T08:37:46.338Z,11.10
2023-09-16T08:40:13.448Z,10.07
2023-09-16T08:42:46.025Z,9.85
2023-09-16T08:45:17.271Z,20.08
2023-09-16T08:47:54.357Z,20.55
2023-09-16T08:50:22.985Z,17.00
2023-09-16T08:52:53.849Z,18.38
2023-09-16T08:55:21.166Z,17.65
2023-09-16T08:57:57.375Z,18.27
2023-09-16T09:00:25.300Z,17.83
2023-09-16T09:02:52.425Z,21.85
2023-09-16T09:05:19.762Z,18.70
2023-09-16T09:07:46.801Z,16.73
2023-09-16T09:10:14.088Z,18.70
2023-09-16T09:12:42.653Z,18.92
2023-09-16T09:15:14.948Z,16.67
2023-09-16T09:17:49.655Z,17.17
2023-09-16T09:20:20.628Z,19.02
2023-09-16T09:22:49.012Z,17.95
2023-09-16T09:25:16.056Z,17.83
2023-09-16T09:27:43.182Z,19.38
2023-09-16T09:30:10.940Z,20.25
2023-09-16T09:32:39.304Z,27.40
2023-09-16T09:35:06.810Z,17.20
2023-09-16T09:37:34.267Z,19.50
2023-09-16T09:40:13.283Z,21.88
2023-09-16T09:42:43.310Z,17.98
2023-09-16T09:45:11.338Z,18.73
2023-09-16T09:47:39.015Z,17.02
2023-09-16T09:50:07.582Z,19.48
2023-09-16T09:52:34.983Z,24.27
2023-09-16T09:55:04.428Z,22.88
2023-09-16T09:57:32.727Z,22.88
2023-09-16T09:59:59.973Z,21.70
2023-09-16T10:02:27.223Z,21.98
2023-09-16T10:05:01.154Z,20.75
2023-09-16T10:07:28.833Z,20.33
2023-09-16T10:09:57.169Z,18.60
2023-09-16T10:12:24.372Z,19.17
2023-09-16T10:14:51.578Z,17.20
2023-09-16T10:17:21.950Z,16.58
2023-09-16T10:19:49.037Z,15.55
2023-09-16T10:22:16.293Z,16.55
2023-09-16T10:24:44.641Z,16.85
2023-09-16T10:27:29.830Z,17.25
2023-09-16T10:29:57.162Z,16.83
2023-09-16T10:32:24.400Z,15.70
2023-09-16T10:34:51.507Z,16.80
2023-09-16T10:37:18.573Z,15.45
2023-09-16T10:39:47.487Z,14.07
2023-09-16T10:42:16.105Z,13.70
2023-09-16T10:44:43.408Z,14.85
2023-09-16T10:47:11.115Z,13.93
2023-09-16T10:49:41.213Z,16.77
2023-09-16T10:52:10.899Z,13.88
2023-09-16T10:54:47.090Z,15.77
2023-09-16T10:57:20.412Z,17.20
2023-09-16T10:59:48.760Z,10.50
2023-09-16T11:02:50.032Z,11.48
2023-09-16T11:05:17.319Z,13.43
2023-09-16T11:07:44.297Z,13.00
2023-09-16T11:10:11.499Z,12.18
2023-09-16T11:12:38.852Z,11.20
2023-09-16T11:15:09.776Z,17.50
2023-09-16T11:17:39.977Z,15.25
2023-09-16T11:20:23.356Z,17.95
2023-09-16T11:22:50.671Z,11.18
2023-09-16T11:25:18.319Z,13.27
2023-09-16T11:27:46.483Z,12.82
2023-09-16T11:30:17.159Z,14.02
2023-09-16T11:32:56.247Z,14.10
2023-09-16T11:35:23.504Z,12.90
2023-09-16T11:37:50.649Z,12.02
2023-09-16T11:40:17.747Z,12.82
2023-09-16T11:42:45.080Z,17.73
2023-09-16T11:45:12.236Z,11.65
2023-09-16T11:47:39.480Z,18.95
2023-09-16T11:50:24.144Z,16.75
2023-09-16T11:52:54.311Z,15.55
2023-09-16T11:55:21.456Z,13.63
2023-09-16T11:57:49.265Z,12.15
2023-09-16T12:00:16.608Z,12.25
2023-09-16T12:02:46.705Z,14.68
2023-09-16T12:05:13.742Z,13.63
2023-09-16T12:07:40.889Z,12.77
2023-09-16T12:10:08.639Z,12.98
2023-09-16T12:12:38.817Z,12.23
2023-09-16T12:15:06.544Z,15.88
2023-09-16T12:17:33.797Z,15.38
2023-09-16T12:20:01.036Z,14.73
2023-09-16T12:22:28.186Z,14.50
2023-09-16T12:24:55.444Z,10.40
2023-09-16T12:27:26.523Z,12.52
2023-09-16T12:29:53.764Z,12.63
2023-09-16T12:32:20.970Z,15.88
2023-09-16T12:35:03.501Z,14.93
2023-09-16T12:37:30.719Z,15.63
2023-09-16T12:39:58.281Z,16.75
2023-09-16T12:42:25.554Z,15.38
2023-09-16T12:44:52.708Z,14.10
2023-09-16T12:47:21.864Z,16.02
2023-09-16T12:49:48.980Z,17.27
2023-09-16T12:52:16.005Z,18.42
2023-09-16T12:54:43.828Z,19.52
2023-09-16T12:57:14.570Z,19.48
2023-09-16T13:00:01.981Z,13.70
2023-09-16T13:02:29.024Z,17.67
2023-09-16T13:05:24.282Z,17.02
2023-09-16T13:07:56.248Z,14.32
2023-09-16T13:10:23.418Z,16.13
2023-09-16T13:12:51.270Z,15.55
2023-09-16T13:15:21.301Z,12.57
2023-09-16T13:17:49.988Z,12.00
2023-09-16T13:20:18.309Z,12.00
2023-09-16T13:22:55.479Z,12.75
2023-09-16T13:25:29.633Z,10.70
2023-09-16T13:28:05.753Z,15.13
2023-09-16T13:30:40.718Z,14.45
2023-09-16T13:33:08.283Z,12.27
2023-09-16T13:35:36.519Z,11.57
2023-09-16T13:38:03.703Z,11.63
2023-09-16T13:40:31.907Z,11.85
2023-09-16T13:43:02.531Z,11.23
2023-09-16T13:45:29.851Z,10.60
2023-09-16T13:48:10.832Z,11.15
2023-09-16T13:50:45.864Z,12.25
2023-09-16T13:53:13.782Z,13.27
2023-09-16T13:55:40.814Z,12.25
2023-09-16T13:58:08.262Z,12.00
2023-09-16T14:00:37.051Z,9.80
2023-09-16T14:03:05.622Z,9.88
2023-09-16T14:05:32.773Z,9.60
2023-09-16T14:07:59.827Z,12.10
2023-09-16T14:10:29.817Z,11.15
2023-09-16T14:12:58.193Z,11.65
2023-09-16T14:15:25.903Z,10.73
2023-09-16T14:17:53.453Z,10.50
2023-09-16T14:20:20.505Z,12.98
2023-09-16T14:22:48.471Z,9.35
2023-09-16T14:25:15.612Z,9.90
2023-09-16T14:27:42.887Z,11.40
2023-09-16T14:30:13.730Z,14.23
2023-09-16T14:32:40.878Z,13.90
2023-09-16T14:35:08.493Z,11.48
2023-09-16T14:37:35.529Z,14.55
2023-09-16T14:40:02.840Z,13.15
2023-09-16T14:42:30.063Z,12.77
2023-09-16T14:44:57.173Z,14.93
2023-09-16T14:47:24.152Z,16.10
2023-09-16T14:49:51.399Z,14.48
2023-09-16T14:52:18.556Z,13.13
2023-09-16T14:54:45.584Z,11.57
2023-09-16T14:57:12.576Z,13.52
2023-09-16T14:59:39.590Z,13.40
2023-09-16T15:02:06.769Z,12.07
2023-09-16T15:04:33.937Z,13.40
2023-09-16T15:07:00.989Z,11.75
2023-09-16T15:09:29.865Z,13.38
2023-09-16T15:11:57.081Z,11.32
2023-09-16T15:14:24.222Z,11.55
2023-09-16T15:16:51.366Z,12.25
2023-09-16T15:19:18.487Z,15.15
2023-09-16T15:21:45.596Z,14.85
2023-09-16T15:24:12.671Z,14.10
2023-09-16T15:26:39.820Z,13.90
2023-09-16T15:29:06.771Z,13.45
2023-09-16T15:31:34.075Z,11.82
2023-09-16T15:34:01.233Z,14.10
2023-09-16T15:36:28.580Z,12.88
2023-09-16T15:38:55.638Z,13.57
2023-09-16T15:41:22.768Z,13.82
2023-09-16T15:43:50.105Z,13.65
2023-09-16T15:46:17.494Z,13.23
2023-09-16T15:48:44.595Z,14.48
2023-09-16T15:51:11.638Z,14.30
2023-09-16T15:53:38.755Z,14.82
2023-09-16T15:56:05.771Z,16.13
2023-09-16T15:58:32.841Z,14.48
2023-09-16T16:01:00.080Z,16.00
2023-09-16T16:03:28.223Z,17.98
2023-09-16T16:05:55.465Z,16.88
2023-09-16T16:08:22.793Z,14.73
2023-09-16T16:10:50.421Z,15.68
2023-09-16T16:13:20.711Z,16.77
2023-09-16T16:15:51.469Z,12.52
2023-09-16T16:18:18.615Z,11.40
2023-09-16T16:20:45.673Z,10.38
2023-09-16T16:23:12.740Z,9.50
2023-09-16T16:25:39.798Z,9.93
2023-09-16T16:28:06.831Z,9.45
2023-09-16T16:30:33.996Z,10.73
2023-09-16T16:33:01.100Z,12.52
2023-09-16T16:35:37.223Z,15.90
2023-09-16T16:38:07.399Z,14.45
2023-09-16T16:40:34.404Z,16.85
2023-09-16T16:43:01.605Z,15.35
2023-09-16T16:45:28.599Z,17.52
2023-09-16T16:47:55.717Z,14.55
2023-09-16T16:50:24.406Z,15.38
2023-09-16T16:52:51.425Z,15.05
2023-09-16T16:55:18.684Z,14.82
2023-09-16T16:57:45.810Z,13.63
2023-09-16T17:00:13.407Z,16.13
2023-09-16T17:02:40.724Z,15.15
2023-09-16T17:05:08.651Z,13.35
2023-09-16T17:07:35.793Z,14.18
2023-09-16T17:10:02.910Z,13.30
2023-09-16T17:12:30.013Z,13.23
2023-09-16T17:14:56.983Z,14.98
2023-09-16T17:17:23.974Z,15.45
2023-09-16T17:19:51.108Z,14.38
2023-09-16T17:22:18.195Z,15.23
2023-09-16T17:24:46.018Z,14.57
2023-09-16T17:27:13.084Z,14.50
2023-09-16T17:29:40.192Z,15.18
2023-09-16T17:32:07.248Z,13.65
2023-09-16T17:34:34.371Z,13.48
2023-09-16T17:37:07.373Z,15.10
2023-09-16T17:39:34.455Z,14.27
2023-09-16T17:42:05.062Z,12.93
2023-09-16T17:44:35.185Z,13.38
2023-09-16T17:47:02.955Z,13.10
2023-09-16T17:49:35.294Z,13.98
2023-09-16T17:52:05.604Z,15.02
2023-09-16T17:54:32.816Z,13.65
2023-09-16T17:56:59.895Z,14.82
2023-09-16T17:59:27.043Z,16.83
2023-09-16T18:01:56.719Z,14.85
2023-09-16T18:04:26.337Z,14.57
2023-09-16T18:06:55.873Z,17.00
2023-09-16T18:09:27.687Z,17.38
2023-09-16T18:11:56.203Z,14.63
2023-09-16T18:14:23.340Z,14.02
2023-09-16T18:16:52.846Z,16.67
2023-09-16T18:19:20.511Z,17.42
2023-09-16T18:21:47.661Z,16.48
2023-09-16T18:24:15.928Z,16.08
2023-09-16T18:26:43.308Z,13.45
2023-09-16T18:29:10.549Z,16.13
2023-09-16T18:31:39.308Z,15.00
2023-09-16T18:34:06.507Z,14.30
2023-09-16T18:36:38.480Z,15.20
2023-09-16T18:39:08.608Z,14.30
2023-09-16T18:41:44.380Z,14.90
2023-09-16T18:44:22.729Z,14.10
2023-09-16T18:46:52.072Z,13.93
2023-09-16T18:49:19.407Z,14.48
2023-09-16T18:51:48.784Z,15.02
2023-09-16T18:54:15.798Z,15.90
2023-09-16T18:56:42.954Z,18.13
2023-09-16T18:59:15.790Z,14.07
2023-09-16T19:01:43.324Z,14.43
2023-09-16T19:04:10.522Z,17.67
2023-09-16T19:06:37.628Z,15.45
2023-09-16T19:09:05.160Z,18.80
2023-09-16T19:11:32.211Z,18.38
2023-09-16T19:13:59.301Z,16.48
2023-09-16T19:16:26.432Z,14.35
2023-09-16T19:18:53.501Z,15.10
2023-09-16T19:21:33.549Z,13.38
2023-09-16T19:24:05.231Z,11.60
2023-09-16T19:26:32.318Z,9.70
2023-09-16T19:29:02.563Z,8.55
2023-09-16T19:31:39.653Z,6.25
2023-09-16T19:34:06.816Z,6.95
2023-09-16T19:36:38.960Z,6.97
2023-09-16T19:39:06.131Z,6.50
2023-09-16T19:41:33.235Z,6.25
2023-09-16T19:44:03.619Z,7.22
2023-09-16T19:46:50.981Z,7.88
2023-09-16T19:49:21.076Z,6.32
2023-09-16T19:51:48.138Z,6.20
2023-09-16T19:54:18.162Z,6.43
2023-09-16T19:57:02.642Z,7.70
2023-09-16T19:59:35.652Z,7.10
2023-09-16T20:02:03.864Z,8.50
2023-09-16T20:04:31.056Z,8.93
2023-09-16T20:06:58.531Z,8.18
2023-09-16T20:09:25.803Z,8.70
2023-09-16T20:11:52.932Z,8.25
2023-09-16T20:14:20.245Z,10.60
2023-09-16T20:16:47.427Z,8.10
2023-09-16T20:19:24.734Z,7.50
2023-09-16T20:21:51.937Z,6.45
2023-09-16T20:24:18.965Z,6.95
2023-09-16T20:26:46.069Z,6.43
2023-09-16T20:29:13.079Z,7.25
2023-09-16T20:31:40.415Z,6.78
2023-09-16T20:34:12.356Z,6.78
2023-09-16T20:36:43.104Z,6.70
2023-09-16T20:39:10.251Z,7.05
2023-09-16T20:41:37.372Z,7.50
2023-09-16T20:44:04.576Z,6.70
2023-09-16T20:46:31.994Z,6.47
2023-09-16T20:48:59.228Z,6.35
2023-09-16T20:51:26.377Z,7.20
2023-09-16T20:53:53.534Z,7.78
2023-09-16T20:56:20.552Z,7.25
2023-09-16T20:58:48.801Z,6.78
2023-09-16T21:01:15.971Z,6.28
2023-09-16T21:03:43.211Z,7.72
2023-09-16T21:06:10.442Z,8.93
2023-09-16T21:08:37.534Z,8.25
2023-09-16T21:11:04.858Z,7.65
2023-09-16T21:13:32.077Z,7.88
2023-09-16T21:15:59.257Z,8.73
2023-09-16T21:18:26.348Z,7.75
2023-09-16T21:20:53.438Z,9.65
2023-09-16T21:23:20.492Z,9.95
2023-09-16T21:25:47.589Z,7.40
2023-09-16T21:28:14.678Z,6.88
2023-09-16T21:30:42.127Z,6.03
2023-09-16T21:33:09.332Z,5.60
2023-09-16T21:35:36.438Z,5.38
2023-09-16T21:38:03.615Z,5.43
2023-09-16T21:40:30.662Z,5.13
2023-09-16T21:42:57.748Z,4.32
2023-09-16T21:45:24.806Z,6.43
2023-09-16T21:47:52.003Z,4.43
2023-09-16T21:50:19.200Z,5.25
2023-09-16T21:52:46.332Z,4.90
2023-09-16T21:55:13.436Z,4.80
2023-09-16T21:57:42.075Z,4.00
2023-09-16T22:00:09.662Z,4.10
2023-09-16T22:02:36.715Z,5.38
2023-09-16T22:05:03.955Z,4.45
2023-09-16T22:07:30.990Z,7.03
2023-09-16T22:09:58.077Z,6.40
2023-09-16T22:12:25.139Z,6.50
2023-09-16T22:14:52.581Z,6.80
2023-09-16T22:17:19.800Z,8.50
2023-09-16T22:19:46.788Z,7.65
2023-09-16T22:22:13.817Z,8.10
2023-09-16T22:24:40.897Z,8.15
2023-09-16T22:27:08.044Z,8.05
2023-09-16T22:29:35.254Z,10.57
2023-09-16T22:32:02.322Z,8.73
2023-09-16T22:34:29.405Z,9.13
2023-09-16T22:36:56.502Z,9.20
2023-09-16T22:39:23.567Z,9.48
2023-09-16T22:41:50.586Z,9.43
2023-09-16T22:44:17.629Z,9.25
2023-09-16T22:46:44.756Z,8.80
2023-09-16T22:49:11.888Z,8.60
2023-09-16T22:51:38.938Z,9.00
2023-09-16T22:54:06.120Z,10.70
2023-09-16T22:56:33.156Z,10.23
2023-09-16T22:59:00.175Z,8.77
2023-09-16T23:01:27.280Z,8.65
2023-09-16T23:04:02.817Z,9.23
2023-09-16T23:06:29.797Z,8.52
2023-09-16T23:08:56.922Z,9.48
2023-09-16T23:11:23.981Z,6.13
2023-09-16T23:13:51.498Z,6.72
2023-09-16T23:16:19.252Z,9.27
2023-09-16T23:18:46.733Z,7.40
2023-09-16T23:21:13.978Z,6.28
2023-09-16T23:23:40.998Z,7.03
2023-09-16T23:26:08.080Z,7.53
2023-09-16T23:28:35.594Z,8.80
2023-09-16T23:31:02.753Z,7.45
2023-09-16T23:33:29.826Z,7.80
2023-09-16T23:35:56.907Z,7.22
2023-09-16T23:38:23.951Z,8.27
2023-09-16T23:40:51.019Z,6.80
2023-09-16T23:43:18.105Z,7.53
2023-09-16T23:45:45.218Z,7.45
2023-09-16T23:48:12.240Z,6.45
2023-09-16T23:50:39.248Z,6.60
2023-09-16T23:53:06.361Z,9.20
2023-09-16T23:55:33.424Z,6.93
2023-09-16T23:58:00.529Z,6.88
